If you wish to contribute or participate in the discussions about articles you are invited to join SKYbrary as a registered user

 Actions

Alice Springs Airport

From SKYbrary Wiki

YBAS /
Revision as of 21:46, 25 June 2020 by Admin (talk | contribs) (Text replacement - "===test===" to "")
(diff) ← Older revision | Latest revision (diff) | Newer revision → (diff)
Airport
ICAO: YBAS – IATA: ASP
Summary
Name Alice Springs Airport
Region Asia and Pacific
Territory Australia AU.gif
Location , Northern Territory
Serving Alice Springs
Elevation 545.287 m <br />1,789 ft <br />1,789 ft545.287 m <br />
Type medium airport
Coordinates 23° 48' 24.01" S, 133° 54' 7.99" E
Runways
Designator Length Width Surface ROPS
12/30 2438 m7,998.688 ft <br /> 45 m147.638 ft <br /> ASP yes/yes
17/35 1133 m3,717.192 ft <br /> 18 m59.055 ft <br /> ASP yes/yes


METAR
Observation YBAS 120400Z AUTO 16007KT 9999 // NCD 20/04 Q1020
Station Alice Springs Aerodrome
Date/Time 12 May 2021 04:00:00
Wind direction 160°
Wind speed 07 kts
Lowest cloud amount no clouds detected
Temperature 20°C
Dew point 4°C
Humidity 34%
QNH 1020 hPa
Weather condition n/a